Time;durP1;ratioP1;P1;durP2;ratioP2;P2;SDS_P1;SDS_P2;PMS_P1;PMS_P2;Temp;Humidity;BMP_temperature;BMP_pressure;BME280_temperature;BME280_humidity;BME280_pressure;Samples;Min_cycle;Max_cycle;Signal;HPM_P1;HPM_P2
2022/11/03 00:01:39;;;;;;;5.00;2.00;;;;;;;17.30;41.07;99315.75;6071840;23;20155;-91
2022/11/03 00:04:08;;;;;;;8.50;3.47;;;;;;;17.20;40.88;99309.47;6095939;23;20219;-91
2022/11/03 00:06:35;;;;;;;12.93;3.63;;;;;;;17.12;41.33;99312.72;6096427;23;20152;-91
2022/11/03 00:09:06;;;;;;;15.93;3.00;;;;;;;16.99;41.63;99306.66;6095445;23;20160;-92
2022/11/03 00:11:34;;;;;;;5.97;2.90;;;;;;;16.94;41.41;99313.25;6071504;23;20164;-91
2022/11/03 00:14:00;;;;;;;12.20;3.57;;;;;;;16.87;41.40;99306.75;6095783;23;20168;-91
2022/11/03 00:16:27;;;;;;;12.67;2.50;;;;;;;16.74;41.41;99313.94;6096315;23;20186;-91
2022/11/03 00:18:55;;;;;;;6.43;2.73;;;;;;;16.68;40.93;99317.03;6160741;23;20161;-91
2022/11/03 00:21:22;;;;;;;7.47;2.13;;;;;;;16.82;40.62;99316.84;6159969;23;20538;-91
2022/11/03 00:23:49;;;;;;;9.57;2.60;;;;;;;16.71;40.53;99316.78;6159890;23;20162;-91
2022/11/03 00:26:22;;;;;;;12.23;3.00;;;;;;;16.62;40.96;99314.81;6185683;23;20197;-91
2022/11/03 00:28:51;;;;;;;12.57;2.80;;;;;;;16.78;40.42;99312.72;6185927;23;20142;-92
2022/11/03 00:31:28;;;;;;;5.63;1.80;;;;;;;16.76;40.07;99318.16;6185945;23;20155;-91
2022/11/03 00:33:56;;;;;;;10.27;2.03;;;;;;;16.72;40.18;99321.16;6160108;23;20152;-91
2022/11/03 00:36:27;;;;;;;8.43;2.73;;;;;;;16.67;40.25;99318.81;6186011;23;20175;-91
2022/11/03 00:38:53;;;;;;;7.73;2.07;;;;;;;16.56;40.67;99327.56;6160234;23;20154;-91
2022/11/03 00:41:23;;;;;;;8.57;2.17;;;;;;;16.69;40.51;99318.72;6159862;23;20219;-91
2022/11/03 00:43:51;;;;;;;4.13;1.43;;;;;;;16.53;40.83;99317.19;6185636;23;20157;-91
2022/11/03 00:46:19;;;;;;;12.33;1.87;;;;;;;16.58;40.80;99315.06;6159813;23;20164;-91
2022/11/03 00:48:45;;;;;;;9.37;2.67;;;;;;;16.50;41.26;99313.91;6159754;23;20162;-91
2022/11/03 00:51:25;;;;;;;7.53;2.10;;;;;;;16.47;41.20;99314.97;6185544;23;20152;-92
2022/11/03 00:53:57;;;;;;;7.60;2.03;;;;;;;16.36;41.58;99314.91;6185685;23;20137;-91
2022/11/03 00:56:31;;;;;;;7.53;2.23;;;;;;;16.51;41.68;99324.38;6185672;23;20241;-91
2022/11/03 00:58:59;;;;;;;6.63;2.13;;;;;;;16.41;41.44;99312.78;6184667;23;20210;-91
2022/11/03 01:01:35;;;;;;;6.03;2.70;;;;;;;16.36;41.80;99312.28;6185575;23;20165;-91
2022/11/03 01:06:50;;;;;;;8.63;2.50;;;;;;;16.40;41.74;99312.91;6186018;23;20211;-91
2022/11/03 01:09:36;;;;;;;6.10;2.37;;;;;;;16.55;41.89;99312.66;6184470;23;20195;-91
2022/11/03 01:12:08;;;;;;;5.37;1.93;;;;;;;16.50;41.70;99301.53;6185530;23;20149;-91
2022/11/03 01:14:43;;;;;;;4.67;1.90;;;;;;;16.52;41.82;99307.59;6160351;23;20492;-91
2022/11/03 01:17:13;;;;;;;12.20;2.60;;;;;;;16.65;42.00;99306.66;6185879;23;20219;-92
2022/11/03 01:19:41;;;;;;;6.30;2.93;;;;;;;16.50;42.37;99306.81;6185985;23;20161;-91
2022/11/03 01:22:08;;;;;;;7.83;2.07;;;;;;;16.51;42.28;99311.13;6160071;23;20226;-91
2022/11/03 01:24:35;;;;;;;11.90;2.77;;;;;;;16.44;42.78;99312.56;6159564;23;20211;-90
2022/11/03 01:27:01;;;;;;;8.50;2.60;;;;;;;16.32;42.81;99313.47;6186020;23;20195;-91
2022/11/03 01:29:27;;;;;;;7.37;2.67;;;;;;;16.27;42.78;99320.06;6159377;23;20170;-91
2022/11/03 01:31:54;;;;;;;6.67;2.60;;;;;;;16.30;42.63;99317.19;6185705;23;20151;-91
2022/11/03 01:34:21;;;;;;;21.57;3.23;;;;;;;16.29;42.48;99312.84;6185339;23;20149;-91
2022/11/03 01:36:48;;;;;;;9.30;3.27;;;;;;;16.38;42.32;99307.72;6184618;23;20195;-91
2022/11/03 01:39:17;;;;;;;7.63;2.47;;;;;;;16.39;42.14;99304.13;6159848;23;20162;-91
2022/11/03 01:41:47;;;;;;;13.47;2.90;;;;;;;16.55;42.09;99312.66;6185601;23;20188;-91
2022/11/03 01:44:15;;;;;;;7.10;2.60;;;;;;;16.57;41.70;99326.59;6159300;23;20246;-91
2022/11/03 01:46:53;;;;;;;5.53;2.07;;;;;;;16.62;41.57;99314.81;6185210;23;20145;-91
2022/11/03 01:49:35;;;;;;;10.47;2.17;;;;;;;16.64;41.59;99320.88;6159430;23;20192;-90
2022/11/03 01:52:15;;;;;;;4.87;1.77;;;;;;;16.50;42.23;99317.41;6185929;23;20136;-90
2022/11/03 01:54:44;;;;;;;5.17;2.07;;;;;;;16.60;41.95;99317.59;6183093;23;20157;-91
2022/11/03 01:57:16;;;;;;;4.43;1.80;;;;;;;16.61;42.24;99318.44;6183642;23;20250;-91
2022/11/03 01:59:46;;;;;;;8.00;2.80;;;;;;;16.63;42.54;99325.31;6159295;23;20180;-90
2022/11/03 02:02:13;;;;;;;5.50;2.10;;;;;;;16.73;42.47;99317.53;6185084;23;20592;-91
2022/11/03 02:04:41;;;;;;;3.40;1.43;;;;;;;16.80;42.04;99318.75;6159222;23;20190;-91
2022/11/03 02:07:19;;;;;;;7.93;1.90;;;;;;;16.82;42.35;99314.19;6185182;23;20575;-91
2022/11/03 02:09:46;;;;;;;6.07;1.63;;;;;;;16.93;42.42;99317.72;6185769;23;20223;-91
2022/11/03 02:12:15;;;;;;;5.63;2.13;;;;;;;16.94;42.39;99321.19;6159075;23;20155;-91
2022/11/03 02:15:04;;;;;;;7.50;1.03;;;;;;;16.95;42.35;99318.47;6159259;23;20636;-91
2022/11/03 02:17:32;;;;;;;9.20;1.77;;;;;;;17.06;42.27;99320.25;6159099;23;20146;-91
2022/11/03 02:20:17;;;;;;;7.03;2.17;;;;;;;17.12;42.05;99330.41;6185420;23;20176;-91
2022/11/03 02:23:14;;;;;;;6.43;2.27;;;;;;;17.16;42.34;99326.56;6159348;23;20154;-91
2022/11/03 02:25:55;;;;;;;5.33;2.00;;;;;;;17.21;42.08;99324.41;6159174;23;20587;-90
2022/11/03 02:28:27;;;;;;;14.07;2.27;;;;;;;17.24;41.63;99328.63;6159107;23;20155;-91
2022/11/03 02:31:14;;;;;;;4.53;1.53;;;;;;;17.27;42.36;99329.22;6159219;23;20534;-91
2022/11/03 02:33:53;;;;;;;7.13;2.27;;;;;;;17.25;43.00;99331.16;6159714;23;20457;-91
2022/11/03 02:36:25;;;;;;;6.67;2.17;;;;;;;17.26;43.65;99338.16;6187118;23;20196;-91
2022/11/03 02:39:15;;;;;;;8.17;2.50;;;;;;;17.37;42.44;99343.47;6160850;23;20603;-91
2022/11/03 02:41:44;;;;;;;5.80;1.67;;;;;;;17.52;41.74;99338.78;6162000;23;20232;-91
2022/11/03 02:44:17;;;;;;;6.47;1.60;;;;;;;17.54;41.52;99345.69;6160970;23;20157;-91
2022/11/03 02:46:47;;;;;;;5.13;1.97;;;;;;;17.60;41.50;99349.66;6161052;23;20140;-91
2022/11/03 02:49:14;;;;;;;3.10;1.10;;;;;;;17.53;41.68;99351.13;6161307;23;20151;-91
2022/11/03 02:51:41;;;;;;;6.60;1.97;;;;;;;17.56;41.64;99350.84;6187631;23;20448;-91
2022/11/03 02:54:24;;;;;;;2.83;1.30;;;;;;;17.54;41.97;99350.97;6186535;23;20150;-90
2022/11/03 02:56:58;;;;;;;4.73;1.60;;;;;;;17.62;42.08;99353.03;6186750;23;20174;-91
2022/11/03 02:59:34;;;;;;;7.10;1.73;;;;;;;17.68;41.78;99357.88;6187168;23;20216;-91
2022/11/03 03:02:08;;;;;;;7.03;1.77;;;;;;;17.65;42.36;99366.91;6186963;23;20203;-90
2022/11/03 03:04:46;;;;;;;7.83;1.73;;;;;;;17.59;42.43;99370.03;6161563;23;20165;-91
2022/11/03 03:07:22;;;;;;;9.20;1.70;;;;;;;17.58;42.41;99372.81;6160701;23;20178;-91
2022/11/03 03:10:00;;;;;;;4.20;1.43;;;;;;;17.52;42.52;99365.28;6186968;23;20138;-91
2022/11/03 03:12:30;;;;;;;4.63;1.90;;;;;;;17.40;42.39;99364.41;6186899;23;20468;-90
2022/11/03 03:14:58;;;;;;;3.77;1.77;;;;;;;17.28;42.68;99370.66;6186830;23;20189;-91
2022/11/03 03:17:51;;;;;;;6.53;2.40;;;;;;;17.13;42.24;99366.53;6186742;23;20161;-91
2022/11/03 03:20:36;;;;;;;8.83;2.70;;;;;;;17.26;41.99;99367.28;6148064;23;20154;-92
2022/11/03 03:23:40;;;;;;;6.73;2.27;;;;;;;17.40;41.73;99364.41;6186756;23;20135;-91
2022/11/03 03:26:16;;;;;;;5.43;2.30;;;;;;;17.48;42.06;99369.16;6160353;23;20204;-91
2022/11/03 03:29:12;;;;;;;7.83;2.67;;;;;;;17.43;41.87;99365.97;6161254;23;20168;-92
2022/11/03 03:31:46;;;;;;;8.63;2.30;;;;;;;17.43;41.90;99361.53;6186083;23;20154;-91
2022/11/03 03:34:15;;;;;;;6.90;2.57;;;;;;;17.56;41.39;99359.66;6185857;23;20559;-92
2022/11/03 03:36:45;;;;;;;11.00;2.37;;;;;;;17.59;41.36;99366.53;6160431;23;20213;-92
2022/11/03 03:39:14;;;;;;;10.13;2.67;;;;;;;17.59;41.59;99361.22;6186393;23;20138;-91
2022/11/03 03:41:46;;;;;;;8.40;2.70;;;;;;;17.66;41.24;99373.06;6187456;23;20150;-90
2022/11/03 03:44:14;;;;;;;5.80;2.50;;;;;;;17.68;41.01;99366.69;6159953;23;20559;-91
2022/11/03 03:46:46;;;;;;;10.60;3.73;;;;;;;17.69;41.26;99368.34;6159960;23;20491;-90
2022/11/03 03:49:13;;;;;;;9.47;2.53;;;;;;;17.73;41.15;99374.25;6186842;23;20138;-91
2022/11/03 03:51:41;;;;;;;7.87;3.00;;;;;;;17.70;41.24;99375.34;6160559;23;20154;-91
2022/11/03 03:54:08;;;;;;;11.63;2.80;;;;;;;17.69;41.51;99376.28;6160025;23;20150;-91
2022/11/03 03:57:14;;;;;;;5.93;2.87;;;;;;;17.69;41.28;99373.66;6185976;23;20174;-91
2022/11/03 03:59:42;;;;;;;7.80;3.07;;;;;;;17.72;41.26;99385.81;6185079;23;20573;-91
2022/11/03 04:02:08;;;;;;;8.10;2.13;;;;;;;17.67;41.67;99380.88;6186273;23;20229;-91
2022/11/03 04:04:35;;;;;;;14.20;2.67;;;;;;;17.76;41.37;99380.19;6160142;23;20265;-91
2022/11/03 04:09:47;;;;;;;9.00;2.20;;;;;;;17.95;41.44;99384.03;6186246;23;20141;-91
2022/11/03 04:23:17;;;;;;;10.73;3.10;;;;;;;17.41;43.11;99378.50;6185899;23;20161;-91
2022/11/03 04:25:52;;;;;;;11.23;2.83;;;;;;;17.34;42.88;99377.31;6160441;23;20154;-92
2022/11/03 04:28:22;;;;;;;8.57;2.83;;;;;;;17.38;42.60;99384.91;6160168;23;20209;-91
2022/11/03 04:30:48;;;;;;;11.23;2.90;;;;;;;17.40;42.33;99392.75;6160323;23;20467;-92
2022/11/03 04:33:19;;;;;;;9.87;2.90;;;;;;;17.31;41.84;99381.03;6185962;23;20158;-92
2022/11/03 04:35:47;;;;;;;5.30;2.67;;;;;;;17.27;41.68;99381.38;6159609;23;20229;-92
2022/11/03 04:38:21;;;;;;;9.50;3.20;;;;;;;17.25;41.44;99386.78;6160243;23;20580;-92
2022/11/03 04:41:02;;;;;;;6.60;2.67;;;;;;;17.25;41.53;99389.44;6186264;23;20249;-92
2022/11/03 04:43:33;;;;;;;11.30;3.63;;;;;;;17.25;41.18;99402.69;6160053;23;20166;-91
2022/11/03 04:46:01;;;;;;;8.57;2.80;;;;;;;17.38;41.20;99397.28;6186137;23;20165;-91
2022/11/03 04:48:28;;;;;;;14.23;2.80;;;;;;;17.44;41.18;99404.78;6186176;23;20545;-91
2022/11/03 04:50:59;;;;;;;11.37;3.73;;;;;;;17.48;40.72;99400.94;6160148;23;20620;-91
2022/11/03 04:53:30;;;;;;;8.90;3.53;;;;;;;17.44;40.88;99410.94;6159770;23;20150;-92
2022/11/03 04:55:58;;;;;;;10.70;3.23;;;;;;;17.21;41.33;99411.84;6186058;23;20173;-91
2022/11/03 04:58:42;;;;;;;13.47;3.97;;;;;;;17.06;41.43;99411.16;6186146;23;20154;-91
2022/11/03 05:01:17;;;;;;;10.17;2.77;;;;;;;16.94;41.72;99419.19;6185907;23;20169;-91
2022/11/03 05:03:47;;;;;;;15.80;3.57;;;;;;;16.90;41.79;99420.38;6159804;23;20212;-90
2022/11/03 05:06:25;;;;;;;15.90;3.90;;;;;;;16.94;42.00;99420.03;6159674;23;20156;-91
2022/11/03 05:08:59;;;;;;;6.90;3.50;;;;;;;16.97;42.17;99421.59;6185796;23;20148;-91
2022/11/03 05:11:41;;;;;;;11.80;3.77;;;;;;;16.98;42.18;99425.97;6159741;23;20514;-92
2022/11/03 05:14:30;;;;;;;9.57;3.13;;;;;;;16.92;42.58;99429.06;6159892;23;20165;-91
2022/11/03 05:16:57;;;;;;;16.90;3.97;;;;;;;16.89;42.74;99446.00;6159574;23;20188;-91
2022/11/03 05:19:33;;;;;;;8.43;2.80;;;;;;;16.75;42.86;99450.59;6185790;23;20149;-91
2022/11/03 05:22:01;;;;;;;9.37;3.53;;;;;;;16.65;42.87;99458.38;6186101;23;20136;-91
2022/11/03 05:24:29;;;;;;;6.93;3.27;;;;;;;16.56;43.38;99464.34;6159810;23;20154;-92
2022/11/03 05:26:57;;;;;;;9.87;3.57;;;;;;;16.58;43.12;99468.56;6185548;23;20283;-91
2022/11/03 05:29:36;;;;;;;11.57;3.40;;;;;;;16.75;42.94;99466.47;6159415;23;20240;-91
2022/11/03 05:32:09;;;;;;;11.07;3.67;;;;;;;16.83;42.51;99469.44;6185946;23;20160;-91
2022/11/03 05:34:42;;;;;;;7.03;3.03;;;;;;;16.90;42.49;99478.63;6160489;23;20176;-91
2022/11/03 05:37:25;;;;;;;13.03;3.33;;;;;;;16.81;42.49;99480.13;6186088;23;20547;-91
2022/11/03 05:39:55;;;;;;;9.97;3.27;;;;;;;16.80;42.85;99483.72;6159465;23;20146;-91
2022/11/03 05:42:35;;;;;;;9.80;3.53;;;;;;;16.81;43.13;99490.72;6159507;23;20299;-91
2022/11/03 05:45:24;;;;;;;13.03;3.90;;;;;;;16.81;43.18;99489.88;6159329;23;20152;-91
2022/11/03 05:47:56;;;;;;;13.03;3.97;;;;;;;16.86;42.89;99498.34;6184703;23;20559;-91
2022/11/03 05:50:43;;;;;;;10.30;4.23;;;;;;;16.93;42.85;99497.78;6160645;23;20149;-91
2022/11/03 05:53:15;;;;;;;9.47;3.70;;;;;;;17.04;42.49;99491.69;6185224;23;20218;-92
2022/11/03 05:55:42;;;;;;;7.53;3.97;;;;;;;17.10;42.70;99494.75;6160271;23;20180;-91
2022/11/03 05:58:38;;;;;;;11.03;3.87;;;;;;;17.16;43.11;99501.41;6185427;23;20185;-91
2022/11/03 06:01:32;;;;;;;10.20;3.83;;;;;;;17.17;43.52;99500.44;6160634;23;20142;-91
2022/11/03 06:04:22;;;;;;;13.17;3.60;;;;;;;17.19;43.17;99501.16;6185972;23;20530;-91
2022/11/03 06:06:57;;;;;;;7.17;3.90;;;;;;;17.32;42.80;99507.22;6144939;23;20156;-91
2022/11/03 06:09:25;;;;;;;14.33;3.70;;;;;;;17.44;42.80;99510.78;6186519;23;20209;-92
2022/11/03 06:11:57;;;;;;;11.63;4.00;;;;;;;17.56;42.36;99504.59;6186983;23;20152;-92
2022/11/03 06:14:29;;;;;;;13.57;3.50;;;;;;;17.62;42.64;99510.28;6187658;23;20138;-92
2022/11/03 06:17:26;;;;;;;12.00;2.87;;;;;;;17.65;42.33;99510.06;6161883;23;20185;-92
2022/11/03 06:19:58;;;;;;;6.20;3.03;;;;;;;17.74;42.16;99500.59;6187191;23;20153;-91
2022/11/03 06:22:31;;;;;;;10.40;3.10;;;;;;;17.74;41.79;99506.69;6161405;23;20142;-91
2022/11/03 06:25:29;;;;;;;12.50;3.60;;;;;;;17.82;41.51;99511.41;6188186;23;20150;-91
2022/11/03 06:28:04;;;;;;;7.20;2.63;;;;;;;17.85;41.60;99515.63;6161125;23;20734;-92
2022/11/03 06:30:33;;;;;;;13.90;4.03;;;;;;;17.98;41.73;99505.78;6160786;23;20157;-91
2022/11/03 06:33:13;;;;;;;15.07;3.97;;;;;;;17.76;43.02;99512.75;6160844;23;20631;-90
2022/11/03 06:35:42;;;;;;;15.33;6.47;;;;;;;17.65;42.82;99525.97;6186754;23;20174;-92
2022/11/03 06:38:30;;;;;;;17.33;4.53;;;;;;;17.61;42.57;99524.50;6187672;23;20153;-92
2022/11/03 06:41:03;;;;;;;9.07;3.90;;;;;;;17.67;42.39;99532.00;6161098;23;20160;-91
2022/11/03 06:43:51;;;;;;;;;;;;;;;;;;;;;
2022/11/03 06:46:25;;;;;;;14.57;4.10;;;;;;;17.76;42.05;99543.72;6181247;23;20229;-91
2022/11/03 06:49:00;;;;;;;13.03;4.77;;;;;;;17.60;41.79;99543.19;6187801;23;20135;-91
2022/11/03 06:51:29;;;;;;;13.43;5.17;;;;;;;17.63;41.62;99549.09;6160696;23;20158;-92
2022/11/03 06:53:59;;;;;;;10.97;5.37;;;;;;;17.78;41.65;99547.94;6160707;23;20173;-91
2022/11/03 06:56:34;;;;;;;12.67;5.10;;;;;;;17.88;41.51;99556.03;6187202;23;20209;-91
2022/11/03 06:59:01;;;;;;;17.77;5.27;;;;;;;17.94;41.96;99557.38;6187195;23;20204;-92
2022/11/03 07:01:34;;;;;;;34.70;5.20;;;;;;;18.05;41.34;99547.66;6160883;23;20157;-92
2022/11/03 07:04:28;;;;;;;15.13;4.20;;;;;;;18.07;41.58;99548.38;6161218;23;20155;-91
2022/11/03 07:06:59;;;;;;;13.23;3.97;;;;;;;18.15;41.32;99555.75;6149106;23;20240;-91
2022/11/03 07:09:28;;;;;;;11.77;3.40;;;;;;;18.12;41.21;99550.69;6186759;23;20146;-92
2022/11/03 07:11:59;;;;;;;10.73;4.07;;;;;;;18.01;41.71;99555.94;6184817;23;20228;-91
2022/11/03 07:14:32;;;;;;;7.73;3.70;;;;;;;18.07;41.54;99552.84;6186366;23;20169;-91
2022/11/03 07:17:15;;;;;;;16.33;4.43;;;;;;;18.10;42.23;99568.53;6187009;23;20177;-91
2022/11/03 07:19:44;;;;;;;10.10;4.23;;;;;;;18.12;42.31;99561.28;6160960;23;20150;-91
2022/11/03 07:22:25;;;;;;;20.20;4.03;;;;;;;18.27;41.81;99553.00;6160486;23;20177;-91
2022/11/03 07:24:55;;;;;;;12.43;3.90;;;;;;;18.33;41.54;99559.63;6160517;23;20149;-92
2022/11/03 07:27:40;;;;;;;15.00;4.10;;;;;;;18.37;41.09;99555.75;6159778;23;20536;-91
2022/11/03 07:30:17;;;;;;;12.20;4.13;;;;;;;18.44;40.88;99562.31;6161009;23;20150;-92
2022/11/03 07:32:44;;;;;;;15.97;5.93;;;;;;;18.44;41.17;99557.00;6186525;23;20696;-91
2022/11/03 07:35:24;;;;;;;22.57;6.30;;;;;;;18.49;41.27;99559.31;6160318;23;20280;-91
2022/11/03 07:37:52;;;;;;;13.67;5.53;;;;;;;18.55;41.61;99556.19;6160392;23;20146;-91
2022/11/03 07:40:22;;;;;;;14.30;6.80;;;;;;;18.69;41.46;99561.25;6160426;23;20261;-90
2022/11/03 07:42:51;;;;;;;25.63;6.73;;;;;;;18.79;41.47;99560.41;6186672;23;20223;-91
2022/11/03 07:45:39;;;;;;;23.40;7.37;;;;;;;18.90;41.21;99548.91;6186189;23;20157;-91
2022/11/03 07:48:16;;;;;;;18.80;6.83;;;;;;;19.01;41.28;99551.56;6186476;23;20250;-91
2022/11/03 07:50:46;;;;;;;21.00;7.67;;;;;;;19.08;41.30;99562.56;6186299;23;20163;-91
2022/11/03 07:53:20;;;;;;;17.87;7.60;;;;;;;19.21;41.41;99555.28;6160680;23;20165;-91
2022/11/03 07:55:47;;;;;;;17.83;6.70;;;;;;;19.23;41.12;99558.66;6183927;23;20683;-92
2022/11/03 07:58:44;;;;;;;17.73;6.90;;;;;;;19.31;41.38;99553.56;6186180;23;20233;-91
2022/11/03 08:01:30;;;;;;;22.43;7.80;;;;;;;19.49;41.20;99552.09;6161105;23;20422;-91
2022/11/03 08:04:03;;;;;;;18.97;7.00;;;;;;;19.56;41.30;99558.56;6160242;23;20182;-91
2022/11/03 08:06:31;;;;;;;16.17;5.83;;;;;;;19.73;40.76;99558.03;6161256;23;20137;-91
2022/11/03 08:08:58;;;;;;;18.63;6.53;;;;;;;19.93;40.58;99548.34;6160411;23;20163;-92
2022/11/03 08:11:25;;;;;;;22.37;6.87;;;;;;;20.10;39.81;99551.28;6186669;23;20548;-92
2022/11/03 08:13:52;;;;;;;18.03;5.70;;;;;;;20.26;40.32;99539.38;6160257;23;20240;-91
2022/11/03 08:16:19;;;;;;;16.80;6.47;;;;;;;20.47;39.46;99553.47;6160039;23;20200;-92
2022/11/03 08:18:46;;;;;;;21.53;7.27;;;;;;;20.57;38.77;99541.06;6184865;23;20165;-92
2022/11/03 08:21:13;;;;;;;13.30;6.03;;;;;;;20.71;38.44;99543.34;6186193;23;20151;-92
2022/11/03 08:23:40;;;;;;;18.57;6.33;;;;;;;20.78;38.31;99541.81;6160004;23;20150;-92
2022/11/03 08:26:08;;;;;;;12.80;6.03;;;;;;;20.71;38.43;99538.03;6160116;23;20178;-92
2022/11/03 08:28:33;;;;;;;11.33;6.77;;;;;;;20.75;38.42;99536.78;6185733;23;20278;-92
2022/11/03 08:31:03;;;;;;;25.03;7.17;;;;;;;20.80;38.05;99530.09;6159589;23;20166;-93
2022/11/03 08:33:31;;;;;;;19.43;7.73;;;;;;;20.88;37.98;99540.06;6185958;23;20180;-91
2022/11/03 08:35:59;;;;;;;17.47;7.67;;;;;;;20.88;38.00;99539.22;6160241;23;20185;-93
2022/11/03 08:38:25;;;;;;;14.20;6.33;;;;;;;20.77;38.31;99541.00;6159940;23;20172;-93
2022/11/03 08:40:57;;;;;;;15.27;7.90;;;;;;;20.72;38.24;99537.91;6161310;23;20157;-92
2022/11/03 08:43:24;;;;;;;20.03;6.63;;;;;;;20.82;37.60;99535.25;6182071;23;20543;-92
2022/11/03 08:45:52;;;;;;;16.67;7.93;;;;;;;20.87;37.82;99543.69;6184638;23;20145;-92
2022/11/03 08:48:20;;;;;;;17.37;7.90;;;;;;;21.01;37.70;99546.00;6159712;23;20156;-92
2022/11/03 08:50:49;;;;;;;13.60;6.77;;;;;;;21.14;37.59;99545.75;6159732;23;20158;-92
2022/11/03 08:53:16;;;;;;;23.90;7.60;;;;;;;21.20;38.04;99556.72;6159767;23;20237;-92
2022/11/03 08:55:43;;;;;;;16.40;7.17;;;;;;;21.14;37.83;99551.94;6159509;23;20221;-92
2022/11/03 08:58:09;;;;;;;26.37;8.77;;;;;;;21.18;37.68;99557.81;6186048;23;20150;-91
2022/11/03 09:00:36;;;;;;;20.60;7.73;;;;;;;21.46;37.50;99551.72;6159868;23;20154;-91
2022/11/03 09:03:03;;;;;;;16.23;7.17;;;;;;;21.51;37.21;99564.63;6185280;23;20212;-91
2022/11/03 09:05:30;;;;;;;12.53;6.53;;;;;;;21.60;36.42;99555.78;6159730;23;20146;-91
2022/11/03 09:07:58;;;;;;;19.37;6.63;;;;;;;21.80;37.08;99552.97;6159416;23;20585;-92
2022/11/03 09:10:27;;;;;;;20.23;6.90;;;;;;;22.00;36.52;99553.84;6185872;23;20166;-92
2022/11/03 09:12:54;;;;;;;12.63;6.13;;;;;;;22.37;36.08;99538.72;6159573;23;20589;-91
2022/11/03 09:15:21;;;;;;;27.67;7.23;;;;;;;22.71;34.74;99541.72;6160312;23;20204;-92
2022/11/03 09:17:48;;;;;;;21.77;7.27;;;;;;;22.85;35.03;99543.06;6159658;23;20150;-92
2022/11/03 09:20:15;;;;;;;17.33;7.50;;;;;;;23.09;34.97;99532.63;6159691;23;20697;-92
2022/11/03 09:22:42;;;;;;;15.83;7.70;;;;;;;23.30;33.35;99533.19;6185785;23;20151;-92
2022/11/03 09:25:09;;;;;;;17.80;9.03;;;;;;;23.68;33.87;99522.25;6185771;23;20166;-92
2022/11/03 09:27:35;;;;;;;16.07;6.90;;;;;;;23.71;34.61;99521.09;6185036;23;20636;-91
2022/11/03 09:30:03;;;;;;;17.80;6.77;;;;;;;23.84;33.90;99524.22;6185397;23;20143;-91
2022/11/03 09:32:30;;;;;;;12.90;6.80;;;;;;;24.14;32.97;99513.06;6185427;23;20213;-92
2022/11/03 09:34:57;;;;;;;15.80;6.07;;;;;;;24.20;31.75;99506.25;6159486;23;20614;-92
2022/11/03 09:37:24;;;;;;;15.20;5.73;;;;;;;24.12;31.35;99499.00;6185393;23;20157;-92
2022/11/03 09:39:51;;;;;;;15.50;5.00;;;;;;;24.54;31.08;99507.13;6159422;23;20151;-92
2022/11/03 09:42:19;;;;;;;13.63;5.87;;;;;;;24.69;30.66;99508.19;6185358;23;20461;-92
2022/11/03 09:44:46;;;;;;;10.93;5.40;;;;;;;24.92;31.10;99503.94;6186896;23;20150;-90
2022/11/03 09:47:27;;;;;;;13.60;5.90;;;;;;;25.14;30.50;99505.19;6186239;23;20161;-91
2022/11/03 09:49:54;;;;;;;10.53;4.50;;;;;;;25.19;30.02;99505.53;6187613;23;20143;-92
2022/11/03 09:52:23;;;;;;;10.63;4.60;;;;;;;25.17;30.38;99504.88;6187583;23;20570;-91
2022/11/03 09:54:56;;;;;;;14.87;5.63;;;;;;;25.44;29.51;99493.84;6161423;23;20169;-91
2022/11/03 09:57:26;;;;;;;9.97;5.50;;;;;;;25.72;29.63;99496.22;6187303;23;20170;-93
2022/11/03 09:59:53;;;;;;;13.10;4.43;;;;;;;25.91;29.42;99490.53;6161422;23;20158;-92
2022/11/03 10:02:30;;;;;;;10.03;5.07;;;;;;;26.21;29.12;99485.28;6187441;23;20151;-92
2022/11/03 10:05:00;;;;;;;12.43;4.83;;;;;;;26.29;28.81;99488.97;6187450;23;20576;-93
2022/11/03 10:07:29;;;;;;;12.03;4.60;;;;;;;26.12;28.22;99482.78;6187518;23;20146;-93
2022/11/03 10:09:58;;;;;;;13.63;5.33;;;;;;;26.43;28.40;99488.25;6186853;23;20155;-92
2022/11/03 10:12:28;;;;;;;7.47;4.20;;;;;;;26.44;28.72;99481.88;6186948;23;20151;-93
2022/11/03 10:14:54;;;;;;;13.03;4.87;;;;;;;26.46;28.35;99479.84;6186818;23;20222;-92
2022/11/03 10:17:29;;;;;;;10.50;4.10;;;;;;;26.64;28.13;99469.69;6161018;23;20190;-92
2022/11/03 10:19:57;;;;;;;10.10;4.47;;;;;;;26.70;27.94;99466.31;6187110;23;20150;-92
2022/11/03 10:22:24;;;;;;;16.20;4.83;;;;;;;27.08;27.51;99465.47;6161584;23;20614;-93
2022/11/03 10:25:26;;;;;;;10.02;4.90;;;;;;;27.26;27.83;99454.41;6161006;23;20159;-92
2022/11/03 10:27:51;;;;;;;16.17;6.13;;;;;;;27.15;27.42;99458.34;6160682;23;20329;-91
2022/11/03 10:30:18;;;;;;;10.20;4.80;;;;;;;27.04;27.30;99449.84;6161408;23;20155;-92
2022/11/03 10:32:45;;;;;;;16.65;4.90;;;;;;;27.16;27.29;99446.56;6187142;23;20153;-92
2022/11/03 10:35:33;;;;;;;10.50;4.30;;;;;;;27.26;27.00;99440.94;6160679;23;20186;-92
2022/11/03 10:38:33;;;;;;;14.35;4.32;;;;;;;27.15;26.96;99444.88;6187642;23;20135;-92
2022/11/03 10:41:14;;;;;;;10.18;3.50;;;;;;;26.91;27.28;99442.38;6123016;23;20569;-91
2022/11/03 10:43:43;;;;;;;12.38;4.63;;;;;;;27.04;27.63;99442.63;6187029;23;20145;-91
2022/11/03 10:46:14;;;;;;;9.95;3.20;;;;;;;27.26;26.89;99432.88;6185732;23;20146;-92
2022/11/03 10:48:41;;;;;;;11.13;3.67;;;;;;;27.24;27.15;99421.44;6160860;23;20233;-91
2022/11/03 10:51:14;;;;;;;9.88;3.63;;;;;;;27.43;26.55;99423.69;6160385;23;20169;-91
2022/11/03 10:53:41;;;;;;;8.57;3.83;;;;;;;27.48;26.73;99412.38;6160924;23;20227;-92
2022/11/03 10:56:09;;;;;;;11.95;3.72;;;;;;;27.53;26.26;99404.59;6160457;23;20206;-92
2022/11/03 10:58:36;;;;;;;19.92;4.47;;;;;;;27.46;26.83;99414.41;6160620;23;20162;-91
2022/11/03 11:01:03;;;;;;;11.65;4.20;;;;;;;27.49;27.35;99406.78;6186780;23;20478;-89
2022/11/03 11:03:32;;;;;;;9.48;3.42;;;;;;;27.52;26.63;99402.91;6186965;23;20637;-92
2022/11/03 11:05:59;;;;;;;8.45;3.45;;;;;;;27.43;27.11;99389.53;6160745;23;20155;-91
2022/11/03 11:08:26;;;;;;;5.70;2.97;;;;;;;27.38;27.37;99391.06;6186342;23;20150;-91
2022/11/03 11:10:53;;;;;;;6.60;3.55;;;;;;;27.58;26.94;99376.09;6160536;23;20166;-92
2022/11/03 11:13:24;;;;;;;9.98;3.45;;;;;;;27.69;27.51;99381.03;6185425;23;20162;-90
2022/11/03 11:15:58;;;;;;;8.38;3.92;;;;;;;27.96;26.40;99377.69;6187190;23;20189;-91
2022/11/03 11:18:33;;;;;;;8.15;2.88;;;;;;;27.91;26.97;99376.56;6160662;23;20139;-91
2022/11/03 11:21:25;;;;;;;7.50;3.42;;;;;;;27.99;26.54;99373.78;6160269;23;20601;-92
2022/11/03 11:23:51;;;;;;;8.90;3.80;;;;;;;28.16;25.96;99375.31;6067246;23;20185;-92
2022/11/03 11:26:26;;;;;;;7.43;3.35;;;;;;;28.06;26.41;99364.00;6043634;23;20220;-92
2022/11/03 11:29:14;;;;;;;8.27;3.60;;;;;;;27.91;26.66;99361.25;6043226;23;20664;-91
2022/11/03 11:31:44;;;;;;;12.05;4.00;;;;;;;28.00;25.85;99365.53;6043575;23;20168;-92
2022/11/03 11:34:17;;;;;;;9.27;3.80;;;;;;;27.94;26.65;99354.66;6067780;23;20499;-92
2022/11/03 11:37:00;;;;;;;7.72;3.35;;;;;;;27.84;26.12;99364.88;6043070;23;20267;-90
2022/11/03 11:39:29;;;;;;;8.05;3.67;;;;;;;28.00;26.24;99348.53;6065335;23;20538;-91
2022/11/03 11:42:15;;;;;;;26.55;4.65;;;;;;;28.04;26.32;99345.31;6067299;23;20172;-91
2022/11/03 11:44:52;;;;;;;8.18;3.20;;;;;;;27.99;26.04;99344.16;6043386;23;20152;-91
2022/11/03 11:47:23;;;;;;;9.40;3.72;;;;;;;28.47;25.55;99340.03;6043028;23;20612;-92
2022/11/03 11:50:20;;;;;;;8.30;3.60;;;;;;;28.26;25.77;99338.13;6067190;23;20153;-91
2022/11/03 11:53:26;;;;;;;6.43;2.85;;;;;;;28.00;26.13;99333.19;6035954;23;20162;-91
2022/11/03 11:56:00;;;;;;;7.32;2.97;;;;;;;28.25;26.28;99332.94;6014558;23;20499;-91
2022/11/03 11:58:58;;;;;;;6.47;2.65;;;;;;;28.45;25.21;99328.59;6014723;23;20582;-92
2022/11/03 12:01:29;;;;;;;8.68;2.97;;;;;;;28.58;25.16;99321.50;6037966;23;20161;-92
2022/11/03 12:04:33;;;;;;;8.88;3.30;;;;;;;28.52;25.44;99314.16;6015647;23;20469;-92
2022/11/03 12:07:00;;;;;;;7.13;3.25;;;;;;;28.66;25.66;99312.50;6014201;23;20253;-92
2022/11/03 12:09:27;;;;;;;8.55;3.38;;;;;;;28.70;25.82;99302.97;6014534;23;20589;-92
2022/11/03 12:11:58;;;;;;;9.52;3.00;;;;;;;28.97;25.63;99304.06;6038427;23;20154;-91
2022/11/03 12:14:37;;;;;;;7.38;2.97;;;;;;;29.05;25.42;99296.69;6014392;23;20158;-92